Time;durP1;ratioP1;P1;durP2;ratioP2;P2;SDS_P1;SDS_P2;PMS_P1;PMS_P2;Temp;Humidity;BMP_temperature;BMP_pressure;BME280_temperature;BME280_humidity;BME280_pressure;Samples;Min_cycle;Max_cycle;Signal;HPM_P1;HPM_P2
2022/08/22 00:01:23;;;;;;;25.40;6.90;;;;;;;25.94;56.64;99751.96;117337;1183;21853;-59
2022/08/22 00:03:56;;;;;;;24.70;7.20;;;;;;;25.90;56.62;99753.79;117287;1183;21889;-65
2022/08/22 00:06:42;;;;;;;25.00;8.10;;;;;;;25.86;56.47;99752.48;117352;1184;21873;-66
2022/08/22 00:09:34;;;;;;;29.30;7.60;;;;;;;25.83;56.45;99752.31;117430;1182;23573;-65
2022/08/22 00:12:05;;;;;;;36.60;7.90;;;;;;;25.80;56.66;99752.48;117298;1182;23012;-66
2022/08/22 00:14:35;;;;;;;34.60;7.70;;;;;;;25.77;56.62;99753.77;117354;1186;24156;-65
2022/08/22 00:17:23;;;;;;;38.70;8.70;;;;;;;25.73;56.75;99749.98;117387;1183;22092;-60
2022/08/22 00:20:11;;;;;;;36.80;7.70;;;;;;;25.69;56.85;99752.47;117304;1182;23580;-59
2022/08/22 00:22:47;;;;;;;30.80;8.90;;;;;;;25.64;56.84;99752.56;117189;1186;21864;-59
2022/08/22 00:25:41;;;;;;;39.10;8.20;;;;;;;25.57;56.89;99753.65;117375;1184;21888;-60
2022/08/22 00:28:19;;;;;;;32.30;8.60;;;;;;;25.51;56.88;99757.59;117387;1185;21851;-59
2022/08/22 00:30:58;;;;;;;29.70;7.40;;;;;;;25.45;56.92;99760.23;117242;1186;23469;-66
2022/08/22 00:33:29;;;;;;;29.00;7.50;;;;;;;25.40;56.82;99756.18;117380;1182;21892;-65
2022/08/22 00:36:04;;;;;;;29.30;7.60;;;;;;;25.35;57.06;99754.57;117390;1182;22608;-59
2022/08/22 00:38:41;;;;;;;29.90;7.20;;;;;;;25.29;57.14;99754.27;117212;1187;21860;-65
2022/08/22 00:41:15;;;;;;;30.50;8.40;;;;;;;25.22;57.13;99754.95;117342;1183;22613;-59
2022/08/22 00:44:07;;;;;;;30.00;7.10;;;;;;;25.16;57.21;99755.32;117443;1186;21862;-66
2022/08/22 00:46:43;;;;;;;22.80;6.80;;;;;;;25.06;57.21;99760.94;117393;1185;21971;-66
2022/08/22 00:49:17;;;;;;;26.00;7.20;;;;;;;25.00;57.37;99761.27;117387;1186;23599;-65
2022/08/22 00:51:59;;;;;;;26.20;8.00;;;;;;;24.96;57.45;99760.36;117349;1185;24177;-60
2022/08/22 00:54:35;;;;;;;36.90;8.40;;;;;;;24.95;57.47;99760.23;117381;1183;21927;-66
2022/08/22 00:57:08;;;;;;;30.80;7.30;;;;;;;24.95;57.54;99760.61;117407;1182;22926;-60
2022/08/22 00:59:46;;;;;;;31.00;8.10;;;;;;;24.93;57.59;99760.59;117302;1182;23907;-59
2022/08/22 01:02:15;;;;;;;28.80;7.80;;;;;;;24.91;57.65;99760.92;117393;1183;21863;-60
2022/08/22 01:04:55;;;;;;;33.10;9.30;;;;;;;24.90;57.73;99764.64;117228;1185;21860;-61
2022/08/22 01:07:46;;;;;;;27.50;7.50;;;;;;;24.89;57.80;99766.13;117295;1182;23484;-59
2022/08/22 01:10:31;;;;;;;;;;;;;;;24.87;57.79;99767.16;117376;1186;23711;-66
2022/08/22 01:13:11;;;;;;;29.20;7.70;;;;;;;24.86;57.81;99764.94;117289;1182;21863;-59
2022/08/22 01:15:38;;;;;;;25.10;8.20;;;;;;;24.85;57.83;99759.11;117283;1186;21856;-60
2022/08/22 01:18:21;;;;;;;31.50;8.40;;;;;;;24.85;57.88;99756.45;117294;1181;23552;-65
2022/08/22 01:20:58;;;;;;;27.30;8.00;;;;;;;24.84;57.72;99757.21;117360;1185;22925;-65
2022/08/22 01:24:27;;;;;;;28.40;8.40;;;;;;;24.84;57.76;99759.73;117309;1186;23556;-60
2022/08/22 01:26:56;;;;;;;26.70;7.60;;;;;;;24.82;57.89;99756.99;116821;1188;23107;-61
2022/08/22 01:30:05;;;;;;;33.20;9.10;;;;;;;24.80;57.83;99755.20;117322;1186;24158;-60
2022/08/22 01:33:02;;;;;;;26.70;6.90;;;;;;;24.79;57.84;99751.64;117391;1184;21860;-59
2022/08/22 01:35:32;;;;;;;24.80;7.20;;;;;;;24.79;57.92;99751.13;117110;1186;23595;-66
2022/08/22 01:38:02;;;;;;;32.40;7.40;;;;;;;24.77;57.80;99750.74;117435;1183;22123;-61
2022/08/22 01:40:54;;;;;;;32.90;7.60;;;;;;;24.77;57.89;99754.77;117425;1185;22092;-60
2022/08/22 01:43:33;;;;;;;34.10;8.10;;;;;;;24.76;57.88;99757.86;117400;1182;21855;-59
2022/08/22 01:46:23;;;;;;;26.70;6.90;;;;;;;24.74;57.79;99758.89;117383;1182;21851;-59
2022/08/22 01:49:10;;;;;;;30.10;7.30;;;;;;;24.72;57.79;99754.92;117426;1182;22997;-66
2022/08/22 01:51:42;;;;;;;27.00;6.60;;;;;;;24.72;57.84;99753.90;117284;1182;21858;-59
2022/08/22 01:54:13;;;;;;;35.10;7.20;;;;;;;24.69;57.85;99753.01;117361;1186;21875;-66
2022/08/22 01:56:42;;;;;;;33.80;7.40;;;;;;;24.65;57.99;99752.41;117369;1182;21852;-59
2022/08/22 01:59:12;;;;;;;28.70;7.10;;;;;;;24.62;58.04;99753.05;117186;1188;21868;-60
2022/08/22 02:02:03;;;;;;;22.90;6.50;;;;;;;24.59;57.91;99757.20;117104;1187;22463;-65
2022/08/22 02:04:45;;;;;;;27.70;7.70;;;;;;;24.55;57.93;99758.97;117386;1183;21961;-66
2022/08/22 02:07:27;;;;;;;24.00;7.00;;;;;;;24.52;57.96;99761.04;117408;1183;23547;-60
2022/08/22 02:10:24;;;;;;;29.00;6.60;;;;;;;24.48;57.88;99765.07;117161;1186;23596;-65
2022/08/22 02:13:00;;;;;;;27.70;6.80;;;;;;;24.44;58.01;99771.33;117332;1183;22909;-66
2022/08/22 02:15:39;;;;;;;27.30;6.60;;;;;;;24.39;58.03;99772.61;117075;1183;23556;-65
2022/08/22 02:18:14;;;;;;;26.00;7.90;;;;;;;24.35;58.11;99773.33;117280;1185;21860;-59
2022/08/22 02:20:47;;;;;;;28.20;7.00;;;;;;;24.32;58.13;99767.98;117317;1181;23452;-66
2022/08/22 02:23:36;;;;;;;23.20;6.20;;;;;;;24.31;58.10;99771.48;117339;1182;22996;-59
2022/08/22 02:26:05;;;;;;;34.40;7.60;;;;;;;24.30;58.01;99771.90;117377;1182;23550;-60
2022/08/22 02:28:36;;;;;;;29.00;6.90;;;;;;;24.30;58.20;99775.68;117551;1182;22006;-59
2022/08/22 02:31:56;;;;;;;23.00;6.50;;;;;;;24.29;58.19;99775.54;117362;1185;21928;-60
2022/08/22 02:34:38;;;;;;;34.10;6.70;;;;;;;24.28;58.22;99777.11;117397;1184;22971;-66
2022/08/22 02:37:08;;;;;;;30.90;6.80;;;;;;;24.25;58.35;99780.93;117278;1183;23470;-59
2022/08/22 02:39:50;;;;;;;31.10;6.80;;;;;;;24.23;58.33;99781.80;117264;1185;21879;-65
2022/08/22 02:42:39;;;;;;;25.30;7.20;;;;;;;24.22;58.27;99782.19;117410;1186;22960;-64
2022/08/22 02:45:45;;;;;;;32.00;6.50;;;;;;;24.20;58.23;99781.83;117383;1185;21852;-59
2022/08/22 02:48:31;;;;;;;32.50;7.60;;;;;;;24.18;58.24;99781.48;117086;1187;22825;-59
2022/08/22 02:51:10;;;;;;;26.80;6.30;;;;;;;24.16;58.30;99781.42;117424;1186;23694;-65
2022/08/22 02:53:45;;;;;;;35.60;6.10;;;;;;;24.10;58.46;99782.05;117335;1182;23576;-65
2022/08/22 02:56:14;;;;;;;24.50;6.90;;;;;;;24.03;58.62;99786.01;117087;1187;22724;-65
2022/08/22 02:58:43;;;;;;;40.90;8.40;;;;;;;24.00;58.62;99785.71;117228;1182;23563;-65
2022/08/22 03:01:23;;;;;;;30.60;7.30;;;;;;;23.99;58.58;99787.91;117236;1186;21976;-59
2022/08/22 03:03:51;;;;;;;35.50;7.80;;;;;;;24.00;58.57;99788.94;117212;1186;21866;-66
2022/08/22 03:06:37;;;;;;;29.70;7.40;;;;;;;23.99;58.69;99789.94;117244;1186;21868;-59
2022/08/22 03:09:13;;;;;;;28.10;7.10;;;;;;;23.93;58.86;99793.35;117253;1186;22341;-66
2022/08/22 03:12:28;;;;;;;33.70;7.60;;;;;;;23.90;58.87;99797.86;117281;1186;22953;-66
2022/08/22 03:15:16;;;;;;;30.80;6.80;;;;;;;23.90;58.86;99798.98;116816;1189;22629;-60
2022/08/22 03:17:49;;;;;;;22.00;6.00;;;;;;;23.91;58.85;99801.96;116952;1188;22168;-66
2022/08/22 03:20:37;;;;;;;27.90;6.60;;;;;;;23.90;58.84;99802.96;117261;1185;21862;-66
2022/08/22 03:23:09;;;;;;;28.30;6.90;;;;;;;23.88;58.99;99805.42;117398;1182;23591;-66
2022/08/22 03:25:58;;;;;;;27.00;6.30;;;;;;;23.86;58.90;99803.21;117252;1186;22645;-65
2022/08/22 03:28:37;;;;;;;26.70;6.70;;;;;;;23.85;59.04;99801.14;117344;1185;22918;-59
2022/08/22 03:31:24;;;;;;;24.80;6.00;;;;;;;23.84;59.03;99804.98;117291;1185;21870;-59
2022/08/22 03:34:13;;;;;;;27.50;6.30;;;;;;;23.83;59.34;99809.19;117258;1183;22632;-59
2022/08/22 03:37:04;;;;;;;23.40;6.60;;;;;;;23.82;59.30;99807.00;117325;1184;21902;-60
2022/08/22 03:39:50;;;;;;;25.30;5.80;;;;;;;23.81;59.22;99811.38;117332;1180;23576;-66
2022/08/22 03:42:29;;;;;;;20.80;5.70;;;;;;;23.82;59.31;99813.24;117320;1185;21861;-60
2022/08/22 03:45:12;;;;;;;36.80;6.90;;;;;;;23.84;59.33;99816.49;117338;1186;22811;-65
2022/08/22 03:48:05;;;;;;;27.10;6.50;;;;;;;23.86;59.33;99815.75;117306;1185;21951;-59
2022/08/22 03:50:55;;;;;;;26.60;7.00;;;;;;;23.89;59.33;99814.81;117310;1186;23614;-59
2022/08/22 03:53:43;;;;;;;25.10;7.20;;;;;;;23.89;59.27;99812.63;117349;1186;22648;-65
2022/08/22 03:56:11;;;;;;;27.90;6.30;;;;;;;23.91;59.40;99815.04;117339;1183;23335;-66
2022/08/22 03:58:56;;;;;;;32.20;6.90;;;;;;;23.94;59.48;99816.95;117362;1183;21857;-65
2022/08/22 04:01:46;;;;;;;28.60;6.80;;;;;;;23.97;59.50;99818.73;117149;1186;21858;-65
2022/08/22 04:04:37;;;;;;;36.10;7.80;;;;;;;24.00;59.58;99824.20;117431;1186;22042;-65
2022/08/22 04:07:30;;;;;;;24.50;6.70;;;;;;;24.04;59.62;99829.66;117119;1182;22932;-65
2022/08/22 04:10:27;;;;;;;24.50;5.70;;;;;;;24.08;59.63;99830.79;117232;1185;21856;-59
2022/08/22 04:13:10;;;;;;;32.60;7.60;;;;;;;24.13;59.59;99832.35;117098;1182;21868;-65
2022/08/22 04:15:45;;;;;;;28.90;6.70;;;;;;;24.18;59.69;99824.29;117238;1185;22594;-65
2022/08/22 04:18:35;;;;;;;25.10;5.70;;;;;;;24.24;59.63;99825.77;117289;1183;23488;-66
2022/08/22 04:21:14;;;;;;;21.60;6.40;;;;;;;24.28;59.74;99828.91;117295;1186;21855;-66
2022/08/22 04:23:54;;;;;;;20.00;6.70;;;;;;;24.30;59.82;99832.80;117173;1188;24188;-66
2022/08/22 04:26:40;;;;;;;23.30;6.60;;;;;;;24.37;60.02;99833.08;117347;1186;22928;-66
2022/08/22 04:29:15;;;;;;;21.50;6.60;;;;;;;24.42;60.08;99835.09;117301;1183;24148;-66
2022/08/22 04:31:46;;;;;;;22.50;6.10;;;;;;;24.50;60.15;99838.81;117362;1185;22531;-60
2022/08/22 04:34:38;;;;;;;24.40;6.00;;;;;;;24.57;60.05;99845.63;117335;1185;21857;-60
2022/08/22 04:37:24;;;;;;;28.20;7.00;;;;;;;24.65;60.23;99850.55;117307;1184;21855;-61
2022/08/22 04:40:20;;;;;;;27.50;6.80;;;;;;;24.74;60.07;99851.13;117139;1187;21864;-66
2022/08/22 04:43:33;;;;;;;26.20;7.10;;;;;;;24.84;60.06;99845.85;117312;1186;21871;-66
2022/08/22 04:46:16;;;;;;;28.80;6.50;;;;;;;24.97;60.23;99844.65;116864;1185;21863;-66
2022/08/22 04:48:52;;;;;;;29.90;6.90;;;;;;;25.06;59.99;99843.85;117134;1189;21862;-65
2022/08/22 04:51:34;;;;;;;23.70;6.20;;;;;;;25.15;59.86;99839.71;117294;1183;24170;-60
2022/08/22 04:54:04;;;;;;;25.60;7.30;;;;;;;25.25;59.96;99840.52;117363;1186;23589;-66
2022/08/22 04:56:58;;;;;;;26.60;7.20;;;;;;;25.39;60.00;99842.61;117388;1182;21858;-60
2022/08/22 04:59:25;;;;;;;26.10;7.30;;;;;;;25.51;60.00;99842.06;117345;1186;22938;-60
2022/08/22 05:01:55;;;;;;;26.70;7.10;;;;;;;25.60;59.87;99840.92;117083;1188;22941;-60
2022/08/22 05:04:31;;;;;;;39.60;8.90;;;;;;;25.69;59.96;99839.83;117290;1183;23721;-60
2022/08/22 05:07:11;;;;;;;38.40;8.60;;;;;;;25.81;59.93;99838.41;117287;1183;23557;-60
2022/08/22 05:09:41;;;;;;;;;;;;;;;25.94;59.84;99835.94;117324;1185;21860;-60
2022/08/22 05:12:10;;;;;;;28.30;6.40;;;;;;;26.03;59.72;99839.44;117391;1185;21857;-65
2022/08/22 05:14:42;;;;;;;22.70;6.80;;;;;;;26.14;59.63;99844.64;117467;1182;22911;-66
2022/08/22 05:17:12;;;;;;;31.10;7.50;;;;;;;26.28;59.49;99846.54;117429;1183;21857;-67
2022/08/22 05:19:49;;;;;;;28.90;7.20;;;;;;;26.42;59.55;99846.95;117325;1185;22662;-60
2022/08/22 05:22:30;;;;;;;30.10;6.80;;;;;;;26.56;59.50;99847.88;117123;1182;22846;-67
2022/08/22 05:25:00;;;;;;;30.60;7.60;;;;;;;26.72;59.22;99846.30;117407;1185;21855;-61
2022/08/22 05:27:33;;;;;;;28.70;6.80;;;;;;;26.86;59.02;99845.81;117391;1182;23541;-61
2022/08/22 05:30:08;;;;;;;31.10;6.70;;;;;;;26.98;59.07;99844.94;117310;1185;21870;-60
2022/08/22 05:32:55;;;;;;;24.40;6.10;;;;;;;27.08;58.71;99842.88;117248;1182;23395;-67
2022/08/22 05:35:36;;;;;;;21.00;7.20;;;;;;;27.24;58.80;99840.75;117404;1182;21888;-67
2022/08/22 05:38:03;;;;;;;29.10;7.70;;;;;;;27.40;58.50;99841.12;117441;1185;23461;-67
2022/08/22 05:40:31;;;;;;;32.70;7.40;;;;;;;27.48;58.56;99842.52;117227;1182;22932;-65
2022/08/22 05:42:58;;;;;;;21.60;6.80;;;;;;;27.62;58.48;99842.19;117097;1187;23708;-61
2022/08/22 05:45:25;;;;;;;31.50;6.90;;;;;;;27.78;58.24;99838.22;117209;1182;22927;-66
2022/08/22 05:48:08;;;;;;;24.50;6.70;;;;;;;27.86;58.36;99838.70;117361;1180;22952;-61
2022/08/22 05:50:39;;;;;;;24.70;6.40;;;;;;;28.06;58.12;99836.20;117215;1182;22909;-66
2022/08/22 05:53:14;;;;;;;23.30;6.80;;;;;;;28.22;57.96;99838.66;117356;1182;21889;-61
2022/08/22 05:55:45;;;;;;;22.40;6.30;;;;;;;28.40;57.87;99832.81;117294;1190;21859;-61
2022/08/22 05:58:42;;;;;;;25.00;6.70;;;;;;;28.54;57.66;99831.73;117346;1182;22847;-66
2022/08/22 06:01:21;;;;;;;22.20;5.50;;;;;;;28.74;57.56;99835.84;117204;1185;21853;-67
2022/08/22 06:03:48;;;;;;;27.70;6.40;;;;;;;28.94;57.42;99835.16;117092;1188;21898;-61
2022/08/22 06:06:16;;;;;;;22.60;5.30;;;;;;;29.14;57.10;99834.11;117526;1183;21882;-67
2022/08/22 06:08:57;;;;;;;20.50;6.50;;;;;;;29.31;56.90;99834.54;118391;1185;21858;-61
2022/08/22 06:11:26;;;;;;;;;;;;;;;29.52;56.93;99835.38;117362;1185;21837;-60
2022/08/22 06:14:26;;;;;;;21.00;4.90;;;;;;;29.74;56.65;99836.29;117309;1182;21865;-67
2022/08/22 06:17:05;;;;;;;23.10;4.90;;;;;;;29.94;56.39;99832.25;117029;1185;21858;-61
2022/08/22 06:19:34;;;;;;;21.50;5.10;;;;;;;30.12;55.89;99834.73;117111;1187;21863;-62
2022/08/22 06:22:01;;;;;;;20.80;6.00;;;;;;;30.34;55.76;99832.33;117056;1182;22102;-68
2022/08/22 06:24:30;;;;;;;25.30;5.80;;;;;;;30.52;55.47;99834.59;116969;1182;23713;-68
2022/08/22 06:27:01;;;;;;;19.80;4.70;;;;;;;30.74;55.45;99837.94;117221;1182;22924;-67
2022/08/22 06:29:33;;;;;;;26.60;5.50;;;;;;;30.93;55.20;99835.23;117042;1182;21856;-61
2022/08/22 06:32:02;;;;;;;21.90;5.00;;;;;;;31.08;54.76;99833.39;117114;1188;23557;-67
2022/08/22 06:34:34;;;;;;;26.40;5.80;;;;;;;31.23;54.44;99834.58;118181;1182;22882;-68
2022/08/22 06:37:03;;;;;;;20.40;6.50;;;;;;;31.39;54.50;99834.48;117375;1182;22924;-61
2022/08/22 06:39:35;;;;;;;20.70;5.70;;;;;;;31.55;54.14;99830.19;117297;1185;21858;-67
2022/08/22 06:42:08;;;;;;;21.70;5.70;;;;;;;31.68;53.84;99827.45;117155;1182;23572;-61
2022/08/22 06:44:59;;;;;;;22.30;5.30;;;;;;;31.85;53.64;99829.63;117289;1185;22813;-62
2022/08/22 06:47:31;;;;;;;23.60;5.10;;;;;;;32.03;53.53;99825.79;117234;1183;23556;-68
2022/08/22 06:50:00;;;;;;;24.20;4.70;;;;;;;32.18;53.21;99825.95;117361;1185;22116;-68
2022/08/22 06:52:28;;;;;;;27.70;6.20;;;;;;;32.32;52.61;99822.80;117367;1185;22788;-63
2022/08/22 06:55:05;;;;;;;15.00;4.50;;;;;;;32.47;52.65;99822.25;117264;1185;23961;-66
2022/08/22 06:57:44;;;;;;;23.90;5.50;;;;;;;32.57;52.45;99822.30;117258;1182;23565;-67
2022/08/22 07:00:12;;;;;;;19.90;4.70;;;;;;;32.70;52.32;99822.35;117317;1182;21852;-61
2022/08/22 07:02:41;;;;;;;27.90;5.60;;;;;;;32.89;52.15;99822.70;117187;1187;21881;-67
2022/08/22 07:05:16;;;;;;;20.90;5.60;;;;;;;33.09;51.92;99824.80;117598;1182;21854;-61
2022/08/22 07:07:43;;;;;;;15.20;4.40;;;;;;;33.27;51.27;99825.36;117320;1186;21868;-67
2022/08/22 07:10:12;;;;;;;16.10;4.20;;;;;;;33.35;50.85;99824.18;117187;1186;22928;-61
2022/08/22 07:12:47;;;;;;;23.20;4.30;;;;;;;33.38;50.77;99823.15;117044;1187;21896;-68
2022/08/22 07:15:41;;;;;;;18.90;4.90;;;;;;;33.47;50.30;99825.77;117291;1185;22945;-61
2022/08/22 07:18:15;;;;;;;17.70;4.10;;;;;;;33.46;49.87;99822.80;117312;1186;23427;-62
2022/08/22 07:20:46;;;;;;;19.70;4.40;;;;;;;33.46;50.12;99823.64;117084;1187;22039;-62
2022/08/22 07:23:35;;;;;;;19.10;4.70;;;;;;;33.55;49.82;99823.95;117314;1183;23478;-67
2022/08/22 07:26:11;;;;;;;18.70;4.70;;;;;;;33.56;49.48;99824.10;117412;1185;22946;-62
2022/08/22 07:28:42;;;;;;;20.10;4.70;;;;;;;33.59;49.47;99824.23;117116;1187;23558;-62
2022/08/22 07:31:33;;;;;;;20.40;5.40;;;;;;;33.66;49.42;99822.50;117183;1186;22626;-68
2022/08/22 07:34:45;;;;;;;21.60;4.20;;;;;;;33.76;49.42;99820.89;117316;1185;21860;-62
2022/08/22 07:37:36;;;;;;;24.00;5.90;;;;;;;33.95;49.29;99815.36;116857;1189;21868;-62
2022/08/22 07:40:09;;;;;;;17.50;4.80;;;;;;;34.24;49.05;99817.27;116998;1186;21914;-68
2022/08/22 07:42:46;;;;;;;20.20;5.40;;;;;;;34.48;48.79;99816.31;117065;1186;21961;-62
2022/08/22 07:45:16;;;;;;;24.00;5.30;;;;;;;34.68;49.23;99815.91;117170;1182;23655;-62
2022/08/22 07:47:55;;;;;;;22.50;6.90;;;;;;;34.95;49.11;99819.29;117283;1180;22926;-63
2022/08/22 07:50:27;;;;;;;26.80;9.90;;;;;;;35.23;48.52;99819.81;117118;1186;21861;-62
2022/08/22 07:53:03;;;;;;;19.80;6.90;;;;;;;35.46;48.20;99821.88;117064;1186;21889;-62
2022/08/22 07:55:30;;;;;;;21.60;6.60;;;;;;;35.61;47.70;99823.14;117211;1185;22979;-62
2022/08/22 07:58:00;;;;;;;26.70;5.30;;;;;;;35.71;47.62;99823.48;117082;1186;22916;-69
2022/08/22 08:00:31;;;;;;;17.60;5.30;;;;;;;35.87;47.60;99827.77;116964;1186;21885;-62
2022/08/22 08:03:02;;;;;;;16.60;5.00;;;;;;;36.11;47.57;99831.17;117296;1186;23483;-68
2022/08/22 08:05:31;;;;;;;25.70;4.90;;;;;;;36.24;47.11;99826.88;117298;1186;21858;-68
2022/08/22 08:07:59;;;;;;;15.60;4.20;;;;;;;36.36;46.88;99825.22;117274;1183;21855;-68
2022/08/22 08:10:30;;;;;;;19.40;4.60;;;;;;;36.51;46.61;99823.73;117212;1186;21862;-69
2022/08/22 08:13:02;;;;;;;;;;;;;;;36.73;46.34;99828.04;117359;1185;22305;-68
2022/08/22 08:15:31;;;;;;;19.90;4.00;;;;;;;36.95;45.87;99826.83;117229;1186;23639;-68
2022/08/22 08:18:00;;;;;;;22.40;5.70;;;;;;;37.10;45.79;99827.05;117106;1184;22932;-69
2022/08/22 08:20:28;;;;;;;22.60;4.80;;;;;;;37.17;45.41;99828.96;117081;1183;23619;-68
2022/08/22 08:22:57;;;;;;;15.60;4.30;;;;;;;37.31;45.52;99832.45;117175;1188;22074;-69
2022/08/22 08:25:25;;;;;;;20.10;4.10;;;;;;;37.46;45.26;99830.02;117392;1186;22931;-69
2022/08/22 08:30:55;;;;;;;28.10;5.50;;;;;;;37.74;44.64;99829.36;117145;1188;22618;-68
2022/08/22 08:33:23;;;;;;;18.80;4.30;;;;;;;37.87;44.53;99829.39;117280;1186;23557;-69
2022/08/22 08:36:30;;;;;;;16.60;4.00;;;;;;;38.05;44.41;99830.08;117291;1186;21875;-69
2022/08/22 08:39:12;;;;;;;19.40;4.90;;;;;;;38.28;44.19;99831.33;117379;1184;22848;-69
2022/08/22 08:41:47;;;;;;;16.90;4.30;;;;;;;38.47;44.03;99828.39;117279;1185;23424;-62
2022/08/22 08:44:25;;;;;;;19.20;4.30;;;;;;;38.51;42.78;99828.68;117356;1186;22633;-62
2022/08/22 08:46:56;;;;;;;21.70;4.70;;;;;;;38.35;43.09;99827.86;117272;1186;22648;-69
2022/08/22 08:49:42;;;;;;;23.00;4.60;;;;;;;38.40;43.35;99823.30;117054;1189;21944;-64
2022/08/22 08:52:57;;;;;;;20.90;4.80;;;;;;;38.62;43.36;99824.92;117168;1186;22983;-68
2022/08/22 08:55:30;;;;;;;22.20;4.90;;;;;;;38.81;42.87;99823.29;116918;1189;23551;-62
2022/08/22 08:58:19;;;;;;;19.70;4.20;;;;;;;38.99;42.73;99824.02;116835;1187;21876;-62
2022/08/22 09:00:51;;;;;;;22.80;4.70;;;;;;;39.17;42.48;99822.94;116981;1184;23548;-69
2022/08/22 09:03:29;;;;;;;20.00;4.20;;;;;;;39.34;42.33;99823.05;117462;1185;22921;-66
2022/08/22 09:06:20;;;;;;;19.70;3.80;;;;;;;39.48;42.14;99823.77;117379;1185;23385;-67
2022/08/22 09:09:02;;;;;;;28.60;4.60;;;;;;;39.58;41.60;99818.18;117457;1186;22728;-67
2022/08/22 09:12:01;;;;;;;22.30;5.30;;;;;;;39.78;41.89;99820.98;117416;1185;24084;-68
2022/08/22 09:14:40;;;;;;;18.80;4.30;;;;;;;40.06;41.80;99823.27;117277;1185;23639;-62
2022/08/22 09:17:19;;;;;;;24.60;5.40;;;;;;;40.25;41.59;99818.14;117302;1185;22321;-68
2022/08/22 09:20:20;;;;;;;25.70;5.00;;;;;;;40.38;41.36;99811.52;117325;1189;21848;-62
2022/08/22 09:23:13;;;;;;;22.10;5.70;;;;;;;40.48;39.67;99811.95;117084;1184;21858;-62
2022/08/22 09:26:07;;;;;;;20.00;5.10;;;;;;;40.38;39.35;99816.82;117384;1186;23478;-68
2022/08/22 09:28:59;;;;;;;17.60;4.70;;;;;;;40.39;40.35;99817.41;117157;1186;21889;-62
2022/08/22 09:31:35;;;;;;;16.90;4.60;;;;;;;40.58;40.12;99816.08;117230;1186;22932;-67
2022/08/22 09:34:36;;;;;;;20.70;4.30;;;;;;;40.83;40.16;99819.17;117244;1185;21903;-63
2022/08/22 09:37:30;;;;;;;25.00;4.70;;;;;;;40.96;38.77;99815.27;117206;1185;21830;-68
2022/08/22 09:40:04;;;;;;;20.40;4.90;;;;;;;41.04;39.49;99815.02;117293;1184;22845;-68
2022/08/22 09:43:02;;;;;;;15.20;5.40;;;;;;;41.24;39.83;99814.33;117391;1185;23453;-62
2022/08/22 09:46:07;;;;;;;17.80;4.30;;;;;;;41.47;39.36;99817.54;117288;1186;22928;-69
2022/08/22 09:48:48;;;;;;;22.90;4.50;;;;;;;41.77;39.05;99818.45;117306;1186;22314;-63
2022/08/22 09:51:37;;;;;;;22.70;4.30;;;;;;;41.82;38.92;99814.48;117099;1187;23488;-68
2022/08/22 09:54:28;;;;;;;20.00;4.00;;;;;;;41.96;38.82;99811.77;117436;1185;23449;-68
2022/08/22 09:57:09;;;;;;;18.50;4.30;;;;;;;42.09;38.70;99810.38;117206;1185;22927;-63
2022/08/22 09:59:47;;;;;;;24.60;5.10;;;;;;;42.27;38.62;99811.70;117097;1186;21859;-68
2022/08/22 10:02:28;;;;;;;18.00;4.70;;;;;;;42.41;38.28;99810.30;117240;1183;23557;-62
2022/08/22 10:05:17;;;;;;;16.90;4.90;;;;;;;42.49;38.11;99812.91;117375;1185;21848;-63
2022/08/22 10:08:32;;;;;;;16.80;4.60;;;;;;;42.61;37.90;99806.30;117011;1187;21884;-63
2022/08/22 10:11:08;;;;;;;17.70;4.80;;;;;;;42.53;36.07;99799.88;119386;1182;21846;-64
2022/08/22 10:13:47;;;;;;;21.00;4.90;;;;;;;42.26;36.91;99801.55;119169;1185;21787;-68
2022/08/22 10:16:36;;;;;;;14.70;3.90;;;;;;;42.25;37.39;99803.98;119328;1184;21771;-70
2022/08/22 10:19:29;;;;;;;17.50;4.70;;;;;;;42.42;37.60;99804.17;118004;1182;22679;-63
2022/08/22 10:22:19;;;;;;;13.40;3.60;;;;;;;42.60;37.46;99804.50;117381;1185;23574;-68
2022/08/22 10:24:55;;;;;;;16.20;3.90;;;;;;;42.72;37.27;99803.86;117406;1188;22922;-63
2022/08/22 10:27:32;;;;;;;16.20;5.10;;;;;;;42.86;37.21;99801.60;117375;1184;23696;-68
2022/08/22 10:30:08;;;;;;;16.40;5.00;;;;;;;43.07;36.99;99801.50;117359;1185;22622;-69
2022/08/22 10:32:39;;;;;;;;;;;;;;;43.20;36.77;99803.40;117388;1185;24136;-69
2022/08/22 10:35:25;;;;;;;14.90;4.20;;;;;;;43.27;36.40;99798.45;117446;1186;21854;-68
2022/08/22 10:37:52;;;;;;;21.10;4.90;;;;;;;43.37;36.39;99799.39;117367;1185;22620;-68
2022/08/22 10:40:39;;;;;;;15.90;4.90;;;;;;;43.38;36.55;99800.23;117370;1186;22072;-69
2022/08/22 10:43:31;;;;;;;15.00;4.80;;;;;;;43.35;35.12;99798.80;117266;1184;21870;-68
2022/08/22 10:46:06;;;;;;;18.00;4.40;;;;;;;43.25;35.59;99797.13;117359;1186;23170;-69
2022/08/22 10:49:02;;;;;;;19.00;4.30;;;;;;;43.32;36.04;99798.38;117295;1181;22927;-69
2022/08/22 10:51:44;;;;;;;20.70;5.20;;;;;;;43.39;34.73;99792.77;117073;1187;23577;-68
2022/08/22 10:54:42;;;;;;;15.80;4.20;;;;;;;43.27;33.61;99788.18;117057;1185;21918;-67
2022/08/22 10:57:37;;;;;;;16.80;4.30;;;;;;;43.11;35.19;99792.70;117307;1183;21855;-64
2022/08/22 11:00:08;;;;;;;19.30;4.80;;;;;;;43.17;35.15;99788.01;117382;1185;21845;-63
2022/08/22 11:02:46;;;;;;;15.60;4.60;;;;;;;43.25;34.60;99789.14;117348;1186;21839;-68
2022/08/22 11:05:44;;;;;;;16.30;4.40;;;;;;;43.34;33.95;99785.60;117400;1183;22497;-63
2022/08/22 11:08:38;;;;;;;17.80;4.50;;;;;;;43.40;34.72;99781.89;117329;1186;22089;-63
2022/08/22 11:11:06;;;;;;;19.20;4.60;;;;;;;43.52;34.76;99785.90;117402;1185;21854;-68
2022/08/22 11:13:48;;;;;;;23.00;5.30;;;;;;;43.65;34.72;99779.96;117344;1182;22621;-69
2022/08/22 11:16:41;;;;;;;16.60;4.50;;;;;;;43.80;34.60;99778.16;117383;1185;22719;-69
2022/08/22 11:19:26;;;;;;;18.70;4.60;;;;;;;44.01;34.24;99776.52;117263;1182;23646;-68
2022/08/22 11:22:29;;;;;;;19.60;5.20;;;;;;;44.22;34.04;99777.41;117423;1186;21868;-69
2022/08/22 11:25:13;;;;;;;19.60;4.60;;;;;;;44.31;34.04;99777.09;117187;1186;21861;-64
2022/08/22 11:28:13;;;;;;;17.60;4.80;;;;;;;44.34;33.67;99770.52;117303;1184;23627;-68
2022/08/22 11:30:46;;;;;;;22.60;5.00;;;;;;;44.23;33.45;99767.06;117288;1185;22158;-64
2022/08/22 11:33:25;;;;;;;20.90;4.10;;;;;;;44.21;34.14;99769.80;117320;1182;21848;-69
2022/08/22 11:36:24;;;;;;;25.30;5.90;;;;;;;44.41;33.92;99768.55;117312;1182;22924;-64
2022/08/22 11:39:04;;;;;;;16.00;3.90;;;;;;;44.53;33.58;99764.08;117397;1186;23724;-68
2022/08/22 11:42:07;;;;;;;18.30;4.60;;;;;;;44.39;32.89;99760.98;117324;1184;21869;-68
2022/08/22 11:44:43;;;;;;;17.00;4.80;;;;;;;44.22;33.45;99765.10;117352;1185;21927;-69
2022/08/22 11:47:19;;;;;;;20.60;5.00;;;;;;;44.25;33.83;99767.09;116932;1188;21863;-69
2022/08/22 11:50:23;;;;;;;17.40;4.80;;;;;;;44.29;33.55;99760.55;117064;1183;21851;-68
2022/08/22 11:53:14;;;;;;;16.40;4.50;;;;;;;44.20;33.41;99765.25;117065;1187;22455;-69
2022/08/22 11:55:46;;;;;;;21.60;5.40;;;;;;;43.99;33.33;99764.52;117372;1183;23513;-68
2022/08/22 11:58:27;;;;;;;16.90;4.80;;;;;;;43.71;33.39;99765.31;117360;1186;21848;-68
2022/08/22 12:01:11;;;;;;;20.10;4.60;;;;;;;43.48;33.35;99765.12;117271;1186;21857;-69
2022/08/22 12:03:53;;;;;;;20.70;5.10;;;;;;;43.23;33.50;99766.30;117259;1182;21924;-69
2022/08/22 12:06:51;;;;;;;23.70;4.70;;;;;;;42.91;33.52;99763.58;117292;1180;22925;-68
2022/08/22 12:09:30;;;;;;;18.50;4.20;;;;;;;42.54;33.41;99760.13;117330;1186;24191;-68
2022/08/22 12:12:36;;;;;;;21.00;5.50;;;;;;;42.23;33.90;99759.09;117058;1188;21860;-68
2022/08/22 12:15:17;;;;;;;17.10;5.40;;;;;;;42.04;33.92;99761.89;117056;1187;21865;-69
2022/08/22 12:18:17;;;;;;;18.40;4.60;;;;;;;41.90;34.15;99756.60;117113;1188;23456;-68
2022/08/22 12:21:11;;;;;;;28.20;6.20;;;;;;;41.82;34.21;99754.08;117226;1186;23583;-68
2022/08/22 12:24:03;;;;;;;19.30;5.00;;;;;;;41.80;34.18;99753.48;117408;1183;21863;-68
2022/08/22 12:26:54;;;;;;;24.20;5.20;;;;;;;41.76;34.04;99753.11;117074;1188;21858;-68